createdAt,value
2018-07-10T00:02:18.198Z,91.40
2018-07-10T00:04:58.230Z,91.00
2018-07-10T00:07:38.255Z,91.00
2018-07-10T00:10:25.730Z,91.70
2018-07-10T00:12:54.367Z,91.80
2018-07-10T00:15:22.974Z,91.80
2018-07-10T00:17:51.585Z,91.90
2018-07-10T00:20:20.126Z,91.60
2018-07-10T00:22:49.546Z,93.50
2018-07-10T00:25:18.103Z,92.30
2018-07-10T00:27:46.715Z,92.60
2018-07-10T00:30:15.494Z,92.70
2018-07-10T00:32:44.011Z,93.30
2018-07-10T00:35:12.612Z,94.70
2018-07-10T00:37:46.124Z,95.70
2018-07-10T00:40:14.843Z,96.60
2018-07-10T00:42:43.543Z,96.00
2018-07-10T00:45:12.061Z,97.90
2018-07-10T00:47:40.691Z,96.80
2018-07-10T00:50:09.238Z,97.70
2018-07-10T00:52:37.850Z,97.00
2018-07-10T00:55:06.450Z,97.00
2018-07-10T00:57:35.010Z,96.80
2018-07-10T01:00:03.764Z,98.00
2018-07-10T01:02:32.294Z,98.10
2018-07-10T01:05:00.889Z,98.30
2018-07-10T01:07:29.455Z,98.10
2018-07-10T01:09:58.019Z,99.50
2018-07-10T01:12:27.026Z,98.10
2018-07-10T01:14:55.767Z,98.30
2018-07-10T01:17:24.293Z,98.20
2018-07-10T01:19:52.890Z,98.60
2018-07-10T01:22:21.508Z,99.70
2018-07-10T01:24:50.253Z,99.70
2018-07-10T01:27:18.898Z,98.80
2018-07-10T01:29:48.442Z,99.50
2018-07-10T01:32:17.335Z,99.60
2018-07-10T01:34:45.894Z,99.90
2018-07-10T01:37:14.711Z,99.20
2018-07-10T01:39:43.462Z,99.70
2018-07-10T01:42:12.278Z,99.40
2018-07-10T01:44:40.878Z,99.90
2018-07-10T01:47:09.449Z,99.40
2018-07-10T01:49:38.062Z,99.70
2018-07-10T01:52:06.810Z,99.90
2018-07-10T01:54:35.510Z,99.90
2018-07-10T01:57:04.394Z,99.90
2018-07-10T01:59:32.962Z,99.90
2018-07-10T02:02:01.667Z,99.90
2018-07-10T02:04:30.195Z,99.90
2018-07-10T02:06:58.867Z,99.90
2018-07-10T02:09:27.569Z,99.90
2018-07-10T02:11:56.207Z,99.90
2018-07-10T02:14:24.886Z,99.90
2018-07-10T02:19:22.726Z,99.90
2018-07-10T02:21:51.697Z,99.90
2018-07-10T02:24:24.443Z,99.90
2018-07-10T02:26:53.669Z,99.90
2018-07-10T02:29:22.455Z,99.90
2018-07-10T02:31:51.091Z,99.90
2018-07-10T02:34:19.653Z,99.90
2018-07-10T02:36:48.191Z,99.90
2018-07-10T02:39:17.192Z,99.90
2018-07-10T02:41:45.738Z,99.90
2018-07-10T02:44:14.334Z,99.90
2018-07-10T02:46:43.046Z,99.90
2018-07-10T02:49:17.695Z,99.90
2018-07-10T02:51:50.956Z,99.90
2018-07-10T02:54:21.685Z,99.90
2018-07-10T02:56:51.428Z,99.90
2018-07-10T02:59:20.323Z,99.90
2018-07-10T03:01:48.962Z,99.90
2018-07-10T03:04:17.562Z,99.90
2018-07-10T03:06:46.614Z,99.90
2018-07-10T03:09:15.364Z,99.90
2018-07-10T03:11:44.113Z,99.90
2018-07-10T03:14:12.839Z,99.90
2018-07-10T03:16:41.499Z,99.90
2018-07-10T03:19:11.209Z,99.90
2018-07-10T03:21:40.362Z,99.90
2018-07-10T03:26:37.970Z,99.90
2018-07-10T03:29:06.873Z,99.90
2018-07-10T03:31:35.466Z,99.90
2018-07-10T03:34:04.224Z,99.90
2018-07-10T03:36:32.899Z,99.90
2018-07-10T03:39:02.879Z,99.90
2018-07-10T03:41:31.430Z,99.90
2018-07-10T03:44:00.154Z,99.90
2018-07-10T03:46:29.392Z,99.90
2018-07-10T03:48:58.046Z,99.90
2018-07-10T03:51:26.911Z,99.90
2018-07-10T03:53:55.510Z,99.90
2018-07-10T03:56:24.405Z,99.90
2018-07-10T03:58:55.640Z,99.90
2018-07-10T04:01:26.095Z,99.90
2018-07-10T04:03:55.170Z,99.90
2018-07-10T04:06:24.114Z,99.90
2018-07-10T04:08:52.807Z,99.90
2018-07-10T04:11:22.098Z,99.90
2018-07-10T04:13:50.769Z,99.90
2018-07-10T04:16:19.591Z,99.90
2018-07-10T04:18:48.163Z,99.90
2018-07-10T04:21:25.789Z,99.90
2018-07-10T04:24:04.477Z,99.90
2018-07-10T04:26:35.892Z,99.90
2018-07-10T04:29:09.723Z,99.90
2018-07-10T04:31:44.458Z,99.90
2018-07-10T04:34:13.030Z,99.90
2018-07-10T04:36:41.722Z,99.90
2018-07-10T04:39:10.270Z,99.90
2018-07-10T04:41:42.170Z,99.90
2018-07-10T04:44:13.374Z,99.90
2018-07-10T04:46:45.498Z,99.90
2018-07-10T04:49:36.346Z,99.90
2018-07-10T04:52:42.529Z,99.90
2018-07-10T04:55:13.858Z,99.90
2018-07-10T04:57:50.427Z,99.90
2018-07-10T05:00:19.002Z,99.90
2018-07-10T05:02:47.953Z,99.90
2018-07-10T05:05:16.562Z,99.90
2018-07-10T05:07:45.103Z,99.90
2018-07-10T05:10:13.840Z,99.90
2018-07-10T05:12:45.181Z,99.90
2018-07-10T05:15:13.982Z,99.90
2018-07-10T05:17:44.033Z,99.90
2018-07-10T05:20:12.985Z,99.90
2018-07-10T05:22:42.186Z,99.90
2018-07-10T05:25:10.964Z,99.90
2018-07-10T05:27:39.572Z,99.90
2018-07-10T05:30:08.175Z,99.90
2018-07-10T05:32:36.843Z,99.90
2018-07-10T05:35:05.550Z,99.90
2018-07-10T05:37:36.303Z,99.90
2018-07-10T05:40:08.559Z,99.90
2018-07-10T05:42:43.955Z,99.90
2018-07-10T05:45:14.107Z,99.90
2018-07-10T05:47:42.743Z,99.90
2018-07-10T05:50:16.472Z,99.90
2018-07-10T05:52:45.834Z,99.90
2018-07-10T05:55:19.766Z,99.90
2018-07-10T05:57:48.290Z,99.90
2018-07-10T06:00:16.883Z,99.90
2018-07-10T06:02:45.441Z,99.90
2018-07-10T06:05:14.316Z,99.90
2018-07-10T06:07:43.138Z,99.90
2018-07-10T06:10:11.686Z,99.90
2018-07-10T06:12:40.469Z,99.90
2018-07-10T06:15:09.264Z,99.90
2018-07-10T06:17:37.891Z,99.90
2018-07-10T06:20:06.740Z,99.90
2018-07-10T06:22:35.338Z,99.90
2018-07-10T06:25:05.662Z,99.90
2018-07-10T06:27:39.855Z,99.90
2018-07-10T06:30:10.144Z,99.90
2018-07-10T06:32:51.020Z,99.90
2018-07-10T06:35:25.084Z,99.90
2018-07-10T06:37:54.533Z,99.90
2018-07-10T06:40:23.163Z,99.90
2018-07-10T06:43:56.515Z,99.90
2018-07-10T06:46:31.527Z,99.90
2018-07-10T06:49:07.279Z,99.90
2018-07-10T06:51:37.506Z,99.90
2018-07-10T06:54:06.107Z,99.90
2018-07-10T06:56:34.718Z,99.90
2018-07-10T06:59:03.387Z,99.90
2018-07-10T07:01:32.018Z,99.90
2018-07-10T07:04:02.241Z,99.90
2018-07-10T07:06:31.795Z,99.90
2018-07-10T07:09:00.496Z,99.90
2018-07-10T07:11:29.217Z,99.90
2018-07-10T07:13:57.814Z,99.90
2018-07-10T07:16:26.446Z,99.90
2018-07-10T07:18:55.090Z,99.90
2018-07-10T07:21:23.832Z,99.90
2018-07-10T07:23:52.429Z,99.90
2018-07-10T07:26:21.446Z,99.90
2018-07-10T07:28:50.190Z,99.90
2018-07-10T07:31:19.288Z,99.90
2018-07-10T07:33:47.958Z,99.90
2018-07-10T07:36:16.668Z,99.90
2018-07-10T07:38:45.251Z,99.90
2018-07-10T07:41:13.855Z,99.90
2018-07-10T07:43:42.663Z,99.90
2018-07-10T07:46:11.144Z,99.90
2018-07-10T07:48:39.819Z,99.90
2018-07-10T07:51:08.453Z,99.90
2018-07-10T07:53:36.991Z,99.90
2018-07-10T07:56:06.302Z,99.90
2018-07-10T07:58:35.279Z,99.90
2018-07-10T08:01:03.971Z,99.90
2018-07-10T08:03:32.838Z,99.90
2018-07-10T08:06:01.591Z,99.90
2018-07-10T08:08:30.227Z,99.90
2018-07-10T08:10:58.835Z,99.90
2018-07-10T08:13:27.503Z,99.90
2018-07-10T08:15:56.229Z,99.90
2018-07-10T08:18:24.975Z,99.90
2018-07-10T08:20:53.724Z,99.90
2018-07-10T08:23:22.562Z,99.90
2018-07-10T08:25:51.274Z,99.90
2018-07-10T08:28:19.990Z,99.90
2018-07-10T08:30:48.945Z,99.90
2018-07-10T08:33:17.906Z,99.90
2018-07-10T08:35:46.835Z,99.90
2018-07-10T08:38:25.571Z,99.90
2018-07-10T08:40:54.134Z,99.90
2018-07-10T08:43:22.714Z,99.90
2018-07-10T08:45:51.335Z,99.90
2018-07-10T08:48:20.131Z,99.90
2018-07-10T08:50:48.831Z,99.90
2018-07-10T08:53:17.366Z,99.90
2018-07-10T08:55:46.066Z,99.90
2018-07-10T08:58:14.941Z,99.90
2018-07-10T09:00:43.541Z,99.90
2018-07-10T09:03:12.246Z,99.90
2018-07-10T09:05:40.803Z,99.90
2018-07-10T09:08:09.409Z,99.90
2018-07-10T09:10:38.039Z,99.90
2018-07-10T09:13:06.664Z,99.90
2018-07-10T09:15:35.590Z,99.90
2018-07-10T09:18:04.249Z,99.90
2018-07-10T09:20:50.562Z,99.90
2018-07-10T09:23:20.587Z,99.90
2018-07-10T09:25:52.855Z,99.90
2018-07-10T09:28:21.902Z,99.90
2018-07-10T09:30:50.982Z,99.90
2018-07-10T09:33:19.543Z,99.90
2018-07-10T09:35:48.158Z,99.90
2018-07-10T09:43:13.387Z,99.90
2018-07-10T09:45:42.040Z,99.90
2018-07-10T09:48:10.963Z,99.90
2018-07-10T09:50:39.915Z,99.90
2018-07-10T09:53:08.489Z,99.90
2018-07-10T09:55:37.208Z,99.90
2018-07-10T10:00:40.144Z,99.90
2018-07-10T10:03:09.168Z,99.90
2018-07-10T10:05:41.182Z,99.90
2018-07-10T10:08:10.160Z,99.90
2018-07-10T10:10:39.054Z,99.90
2018-07-10T10:15:36.751Z,99.90
2018-07-10T10:18:07.254Z,99.90
2018-07-10T10:20:38.189Z,99.90
2018-07-10T10:23:07.059Z,99.90
2018-07-10T10:25:38.517Z,99.90
2018-07-10T10:28:08.959Z,99.90
2018-07-10T10:30:38.801Z,99.90
2018-07-10T10:33:08.255Z,99.90
2018-07-10T10:35:36.929Z,99.90
2018-07-10T10:38:05.869Z,99.90
2018-07-10T10:40:37.590Z,99.90
2018-07-10T10:43:09.186Z,99.90
2018-07-10T10:45:40.693Z,99.90
2018-07-10T10:48:09.912Z,99.90
2018-07-10T10:50:39.928Z,99.90
2018-07-10T10:53:08.959Z,99.90
2018-07-10T10:55:37.499Z,99.90
2018-07-10T11:00:35.099Z,99.90
2018-07-10T11:03:04.457Z,99.90
2018-07-10T11:05:33.798Z,99.90
2018-07-10T11:08:02.661Z,99.90
2018-07-10T11:10:31.885Z,99.90
2018-07-10T11:13:00.810Z,99.90
2018-07-10T11:15:29.505Z,99.90
2018-07-10T11:18:03.506Z,99.90
2018-07-10T11:20:56.000Z,99.90
2018-07-10T11:23:32.826Z,99.90
2018-07-10T11:26:07.922Z,99.90
2018-07-10T11:28:36.557Z,99.90
2018-07-10T11:31:05.279Z,99.90
2018-07-10T11:33:33.847Z,99.90
2018-07-10T11:36:02.747Z,99.90
2018-07-10T11:38:31.446Z,99.90
2018-07-10T11:41:00.053Z,99.90
2018-07-10T11:43:28.809Z,99.90
2018-07-10T11:45:57.461Z,99.90
2018-07-10T11:48:26.159Z,99.90
2018-07-10T11:50:54.703Z,99.90
2018-07-10T11:53:23.267Z,99.90
2018-07-10T11:55:51.913Z,99.90
2018-07-10T11:58:20.491Z,99.90
2018-07-10T12:00:49.354Z,99.90
2018-07-10T12:03:18.134Z,99.90
2018-07-10T12:05:46.708Z,99.90
2018-07-10T12:08:15.242Z,99.90
2018-07-10T12:10:46.530Z,99.90
2018-07-10T12:13:15.110Z,99.90
2018-07-10T12:15:43.895Z,99.90
2018-07-10T12:18:15.218Z,99.90
2018-07-10T12:20:44.379Z,99.90
2018-07-10T12:23:13.366Z,99.90
2018-07-10T12:25:43.415Z,99.90
2018-07-10T12:28:13.329Z,99.90
2018-07-10T12:30:42.333Z,99.90
2018-07-10T12:33:10.983Z,99.90
2018-07-10T12:35:40.092Z,99.90
2018-07-10T12:38:08.755Z,99.90
2018-07-10T12:40:37.359Z,99.90
2018-07-10T12:43:06.186Z,99.90
2018-07-10T12:45:34.878Z,99.90
2018-07-10T12:48:03.592Z,99.90
2018-07-10T12:50:32.259Z,99.90
2018-07-10T12:53:00.837Z,99.90
2018-07-10T12:55:29.574Z,99.90
2018-07-10T12:57:58.719Z,99.90
2018-07-10T13:00:28.652Z,99.90
2018-07-10T13:02:57.795Z,99.90
2018-07-10T13:05:28.910Z,99.90
2018-07-10T13:07:57.482Z,99.90
2018-07-10T13:10:26.059Z,99.90
2018-07-10T13:12:54.694Z,99.90
2018-07-10T13:15:23.398Z,99.90
2018-07-10T13:17:52.226Z,99.90
2018-07-10T13:20:20.991Z,99.90
2018-07-10T13:22:50.144Z,99.90
2018-07-10T13:25:18.733Z,99.90
2018-07-10T13:27:48.588Z,99.90
2018-07-10T13:30:17.215Z,99.90
2018-07-10T13:32:45.983Z,99.90
2018-07-10T13:35:14.764Z,99.90
2018-07-10T13:37:45.235Z,99.90
2018-07-10T13:40:13.782Z,99.90
2018-07-10T13:42:50.429Z,99.90
2018-07-10T13:45:19.683Z,99.90
2018-07-10T13:47:48.491Z,99.90
2018-07-10T13:50:19.712Z,99.90
2018-07-10T13:52:48.475Z,99.90
2018-07-10T13:55:17.323Z,99.90
2018-07-10T13:57:51.183Z,99.90
2018-07-10T14:00:20.666Z,99.90
2018-07-10T14:02:49.227Z,99.90
2018-07-10T14:05:17.902Z,99.90
2018-07-10T14:07:46.552Z,99.90
2018-07-10T14:10:15.093Z,99.90
2018-07-10T14:12:43.846Z,99.90
2018-07-10T14:15:12.492Z,99.90
2018-07-10T14:17:42.428Z,99.90
2018-07-10T14:20:11.447Z,99.90
2018-07-10T14:22:40.356Z,99.90
2018-07-10T14:25:09.274Z,99.90
2018-07-10T14:27:37.915Z,99.90
2018-07-10T14:30:06.819Z,99.90
2018-07-10T14:32:35.511Z,99.90
2018-07-10T14:35:04.148Z,99.90
2018-07-10T14:37:32.751Z,99.90
2018-07-10T14:40:01.892Z,99.90
2018-07-10T14:42:30.822Z,99.90
2018-07-10T14:45:03.953Z,99.90
2018-07-10T14:47:33.102Z,99.90
2018-07-10T14:50:02.807Z,99.90
2018-07-10T14:54:59.979Z,99.90
2018-07-10T14:57:28.695Z,99.90
2018-07-10T14:59:57.318Z,99.90
2018-07-10T15:02:25.934Z,99.90
2018-07-10T15:04:54.994Z,99.90
2018-07-10T15:07:23.616Z,99.90
2018-07-10T15:09:52.262Z,99.90
2018-07-10T15:12:21.102Z,99.90
2018-07-10T15:14:49.834Z,99.90
2018-07-10T15:17:23.614Z,99.90
2018-07-10T15:19:52.275Z,99.90
2018-07-10T15:22:20.874Z,99.90
2018-07-10T15:24:49.440Z,99.90
2018-07-10T15:27:18.183Z,99.90
2018-07-10T15:29:47.125Z,99.90
2018-07-10T15:32:15.664Z,99.90
2018-07-10T15:34:44.207Z,99.90
2018-07-10T15:37:12.934Z,99.90
2018-07-10T15:39:41.571Z,99.90
2018-07-10T15:42:10.202Z,99.90
2018-07-10T15:47:06.950Z,99.90
2018-07-10T15:49:35.535Z,99.90
2018-07-10T15:52:04.906Z,99.90
2018-07-10T15:54:33.719Z,99.90
2018-07-10T15:57:02.404Z,99.90
2018-07-10T15:59:31.041Z,99.90
2018-07-10T16:01:59.602Z,99.80
2018-07-10T16:04:28.227Z,99.90
2018-07-10T16:06:56.930Z,99.80
2018-07-10T16:09:25.538Z,99.40
2018-07-10T16:11:58.923Z,99.90
2018-07-10T16:14:28.611Z,99.20
2018-07-10T16:16:57.441Z,99.10
2018-07-10T16:19:31.361Z,99.90
2018-07-10T16:22:04.271Z,99.20
2018-07-10T16:24:41.344Z,98.70
2018-07-10T16:27:09.955Z,98.10
2018-07-10T16:29:38.714Z,98.30
2018-07-10T16:32:08.139Z,98.50
2018-07-10T16:34:37.364Z,97.90
2018-07-10T16:39:34.526Z,98.50
2018-07-10T16:42:08.535Z,98.00
2018-07-10T16:44:38.375Z,98.00
2018-07-10T16:47:11.537Z,98.20
2018-07-10T16:49:45.087Z,98.20
2018-07-10T16:53:19.832Z,98.30
2018-07-10T16:55:48.382Z,97.80
2018-07-10T16:58:16.969Z,97.60
2018-07-10T17:00:45.750Z,97.70
2018-07-10T17:03:14.547Z,96.70
2018-07-10T17:05:43.257Z,97.00
2018-07-10T17:08:11.883Z,97.00
2018-07-10T17:10:40.451Z,97.20
2018-07-10T17:13:09.226Z,96.50
2018-07-10T17:15:37.778Z,96.80
2018-07-10T17:18:06.498Z,96.50
2018-07-10T17:20:35.058Z,96.60
2018-07-10T17:23:03.958Z,96.90
2018-07-10T17:25:32.748Z,97.00
2018-07-10T17:28:01.607Z,96.90
2018-07-10T17:30:30.262Z,96.70
2018-07-10T17:32:59.076Z,98.00
2018-07-10T17:35:27.656Z,96.70
2018-07-10T17:37:56.260Z,96.90
2018-07-10T17:40:24.987Z,97.20
2018-07-10T17:42:53.612Z,96.50
2018-07-10T17:45:23.740Z,96.50
2018-07-10T17:47:52.715Z,96.70
2018-07-10T17:50:22.056Z,96.40
2018-07-10T17:52:51.043Z,96.40
2018-07-10T17:55:19.807Z,96.60
2018-07-10T17:57:50.588Z,96.80
2018-07-10T18:00:19.354Z,96.70
2018-07-10T18:02:47.958Z,96.70
2018-07-10T18:05:16.685Z,96.60
2018-07-10T18:07:45.579Z,96.60
2018-07-10T18:10:14.239Z,96.60
2018-07-10T18:12:42.922Z,96.30
2018-07-10T18:15:11.815Z,96.40
2018-07-10T18:17:40.448Z,96.30
2018-07-10T18:20:09.234Z,96.70
2018-07-10T18:22:37.966Z,96.70
2018-07-10T18:25:06.841Z,96.90
2018-07-10T18:30:03.710Z,98.30
2018-07-10T18:32:32.327Z,97.40
2018-07-10T18:35:00.879Z,97.50
2018-07-10T18:37:29.638Z,97.20
2018-07-10T18:39:58.252Z,97.90
2018-07-10T18:42:26.906Z,97.60
2018-07-10T18:44:55.618Z,97.70
2018-07-10T18:47:24.330Z,97.90
2018-07-10T18:49:55.312Z,97.60
2018-07-10T18:52:27.753Z,97.80
2018-07-10T18:54:58.585Z,98.30
2018-07-10T18:57:42.015Z,98.10
2018-07-10T19:00:10.934Z,98.40
2018-07-10T19:02:49.899Z,98.20
2018-07-10T19:05:18.580Z,98.50
2018-07-10T19:07:47.360Z,98.30
2018-07-10T19:10:16.128Z,98.50
2018-07-10T19:12:44.723Z,98.40
2018-07-10T19:15:13.389Z,98.60
2018-07-10T19:17:42.018Z,98.50
2018-07-10T19:20:12.112Z,98.60
2018-07-10T19:23:03.463Z,98.80
2018-07-10T19:25:33.435Z,99.00
2018-07-10T19:28:02.755Z,98.80
2018-07-10T19:30:46.116Z,99.50
2018-07-10T19:33:14.783Z,99.30
2018-07-10T19:35:43.948Z,99.30
2018-07-10T19:38:13.019Z,99.20
2018-07-10T19:40:41.891Z,99.10
2018-07-10T19:43:10.725Z,99.00
2018-07-10T19:45:42.424Z,99.20
2018-07-10T19:48:11.240Z,99.50
2018-07-10T19:50:40.667Z,99.70
2018-07-10T19:53:09.409Z,99.80
2018-07-10T19:55:39.438Z,99.50
2018-07-10T19:58:42.572Z,99.80
2018-07-10T20:01:18.526Z,99.90
2018-07-10T20:04:10.741Z,99.90
2018-07-10T20:06:49.497Z,99.90
2018-07-10T20:09:19.720Z,99.90
2018-07-10T20:12:09.655Z,99.90
2018-07-10T20:14:49.428Z,99.90
2018-07-10T20:17:19.803Z,99.90
2018-07-10T20:19:57.595Z,99.90
2018-07-10T20:22:34.841Z,99.90
2018-07-10T20:25:12.972Z,99.90
2018-07-10T20:27:49.242Z,99.90
2018-07-10T20:30:27.846Z,99.90
2018-07-10T20:33:03.083Z,99.90
2018-07-10T20:35:33.820Z,99.90
2018-07-10T20:38:02.489Z,99.90
2018-07-10T20:40:35.533Z,99.90
2018-07-10T20:45:34.537Z,99.90
2018-07-10T20:48:03.299Z,99.90
2018-07-10T20:50:34.370Z,99.90
2018-07-10T20:53:14.630Z,99.90
2018-07-10T20:55:49.254Z,99.90
2018-07-10T20:58:18.683Z,99.90
2018-07-10T21:00:58.060Z,99.90
2018-07-10T21:04:06.180Z,99.90
2018-07-10T21:06:44.130Z,99.90
2018-07-10T21:09:14.561Z,99.90
2018-07-10T21:12:20.442Z,99.90
2018-07-10T21:14:56.869Z,99.90
2018-07-10T21:17:33.018Z,99.90
2018-07-10T21:20:10.249Z,99.90
2018-07-10T21:22:53.128Z,99.90
2018-07-10T21:26:31.407Z,99.90
2018-07-10T21:29:07.018Z,99.90
2018-07-10T21:32:09.650Z,99.90
2018-07-10T21:34:45.767Z,99.90
2018-07-10T21:38:21.699Z,99.90
2018-07-10T21:41:59.537Z,99.90
2018-07-10T21:44:40.438Z,99.90
2018-07-10T21:47:50.944Z,99.90
2018-07-10T21:50:25.971Z,99.90
2018-07-10T21:52:54.651Z,99.90
2018-07-10T21:55:23.185Z,99.90
2018-07-10T21:57:52.776Z,99.90
2018-07-10T22:00:27.382Z,99.90
2018-07-10T22:02:56.320Z,99.90
2018-07-10T22:05:24.905Z,99.90
2018-07-10T22:07:53.725Z,99.90
2018-07-10T22:10:22.307Z,99.90
2018-07-10T22:12:52.126Z,99.90
2018-07-10T22:15:21.050Z,99.90
2018-07-10T22:17:49.810Z,99.90
2018-07-10T22:20:18.394Z,99.90
2018-07-10T22:22:47.562Z,99.90
2018-07-10T22:25:16.324Z,99.90
2018-07-10T22:27:44.915Z,99.90
2018-07-10T22:30:21.187Z,99.90
2018-07-10T22:32:54.178Z,99.90
2018-07-10T22:35:23.892Z,99.90
2018-07-10T22:37:53.091Z,99.90
2018-07-10T22:40:21.814Z,99.90
2018-07-10T22:42:50.503Z,99.90
2018-07-10T22:45:19.542Z,99.90
2018-07-10T22:47:48.171Z,99.90
2018-07-10T22:50:20.633Z,99.90
2018-07-10T22:52:54.446Z,99.90
2018-07-10T22:55:28.548Z,99.90
2018-07-10T22:58:04.286Z,99.90
2018-07-10T23:00:34.325Z,99.90
2018-07-10T23:03:16.902Z,99.90
2018-07-10T23:05:46.786Z,99.90
2018-07-10T23:08:16.338Z,99.90
2018-07-10T23:10:46.207Z,99.90
2018-07-10T23:13:15.223Z,99.90
2018-07-10T23:15:44.009Z,99.90
2018-07-10T23:18:12.696Z,99.90
2018-07-10T23:20:41.339Z,99.90
2018-07-10T23:23:10.429Z,99.90
2018-07-10T23:25:39.096Z,99.90
2018-07-10T23:28:07.874Z,99.90
2018-07-10T23:30:40.253Z,99.90
2018-07-10T23:33:11.182Z,99.90
2018-07-10T23:35:41.586Z,99.90
2018-07-10T23:39:16.162Z,99.90
2018-07-10T23:42:50.621Z,99.90
2018-07-10T23:45:21.521Z,99.90
2018-07-10T23:47:51.945Z,99.90
2018-07-10T23:50:29.163Z,99.90
2018-07-10T23:54:01.359Z,99.90
2018-07-10T23:56:29.958Z,99.90
2018-07-10T23:58:58.711Z,99.90
